createdAt,value
2016-06-27T00:02:05.348Z,15.3
2016-06-27T00:07:05.585Z,15.3
2016-06-27T00:12:04.999Z,15.3
2016-06-27T00:17:06.846Z,15.0
2016-06-27T00:22:05.108Z,14.9
2016-06-27T00:27:05.158Z,14.8
2016-06-27T00:32:05.450Z,14.8
2016-06-27T00:37:04.567Z,14.7
2016-06-27T00:42:03.871Z,14.7
2016-06-27T00:47:04.922Z,14.6
2016-06-27T00:52:05.430Z,14.2
2016-06-27T00:57:04.971Z,14.0
2016-06-27T01:02:11.473Z,14.0
2016-06-27T01:07:04.893Z,13.9
2016-06-27T01:12:05.318Z,14.0
2016-06-27T01:17:06.429Z,14.0
2016-06-27T01:22:05.030Z,14.0
2016-06-27T01:27:05.200Z,13.9
2016-06-27T01:32:05.027Z,13.5
2016-06-27T01:37:05.185Z,13.4
2016-06-27T01:42:04.827Z,13.4
2016-06-27T01:47:05.447Z,13.4
2016-06-27T01:52:05.294Z,13.4
2016-06-27T01:57:04.447Z,13.2
2016-06-27T02:02:05.315Z,13.1
2016-06-27T02:07:05.457Z,13.0
2016-06-27T02:12:05.432Z,12.6
2016-06-27T02:17:08.864Z,12.5
2016-06-27T02:22:04.657Z,12.4
2016-06-27T02:27:04.842Z,12.2
2016-06-27T02:32:04.498Z,12.3
2016-06-27T02:37:04.855Z,12.3
2016-06-27T02:42:04.603Z,12.3
2016-06-27T02:47:19.035Z,12.5
2016-06-27T02:52:05.391Z,12.3
2016-06-27T02:57:03.979Z,12.3
2016-06-27T03:02:16.966Z,12.2
2016-06-27T03:07:05.310Z,12.2
2016-06-27T03:12:05.062Z,12.2
2016-06-27T03:17:21.247Z,12.1
2016-06-27T03:22:06.215Z,12.0
2016-06-27T03:27:09.133Z,12.0
2016-06-27T03:32:17.714Z,12.2
2016-06-27T03:37:06.941Z,12.1
2016-06-27T03:42:06.465Z,12.1
2016-06-27T03:47:23.720Z,12.1
2016-06-27T03:52:05.094Z,12.1
2016-06-27T03:57:05.843Z,12.0
2016-06-27T04:02:19.143Z,11.9
2016-06-27T04:07:10.903Z,12.2
2016-06-27T04:12:09.954Z,12.4
2016-06-27T04:17:20.107Z,12.4
2016-06-27T04:22:06.906Z,12.7
2016-06-27T04:27:07.594Z,13.2
2016-06-27T04:32:18.404Z,13.2
2016-06-27T04:37:03.776Z,13.5
2016-06-27T04:42:04.340Z,13.7
2016-06-27T04:47:23.506Z,13.8
2016-06-27T04:52:03.863Z,13.9
2016-06-27T04:57:04.801Z,14.4
2016-06-27T05:02:23.275Z,14.6
2016-06-27T05:07:04.190Z,14.7
2016-06-27T05:12:04.298Z,14.8
2016-06-27T05:17:20.558Z,15.0
2016-06-27T05:22:04.267Z,14.9
2016-06-27T05:27:04.363Z,15.6
2016-06-27T05:32:17.910Z,15.8
2016-06-27T05:37:04.585Z,15.9
2016-06-27T05:42:04.471Z,15.9
2016-06-27T05:47:23.379Z,16.1
2016-06-27T05:52:04.487Z,16.2
2016-06-27T05:57:04.467Z,16.7
2016-06-27T06:02:18.590Z,16.9
2016-06-27T06:07:04.522Z,17.1
2016-06-27T06:12:05.068Z,17.1
2016-06-27T06:17:25.754Z,17.5
2016-06-27T06:22:05.022Z,17.7
2016-06-27T06:27:03.969Z,18.0
2016-06-27T06:32:22.631Z,18.0
2016-06-27T06:37:04.894Z,18.6
2016-06-27T06:42:04.464Z,19.0
2016-06-27T06:47:18.752Z,19.0
2016-06-27T06:52:04.243Z,19.6
2016-06-27T06:57:04.692Z,19.7
2016-06-27T07:02:24.360Z,19.8
2016-06-27T07:07:06.260Z,20.0
2016-06-27T07:12:04.388Z,20.4
2016-06-27T07:17:18.719Z,20.4
2016-06-27T07:22:05.613Z,20.6
2016-06-27T07:27:05.563Z,21.0
2016-06-27T07:32:18.380Z,21.2
2016-06-27T07:37:05.533Z,21.5
2016-06-27T07:42:05.004Z,21.7
2016-06-27T07:47:18.896Z,22.1
2016-06-27T07:52:08.563Z,22.1
2016-06-27T08:02:18.358Z,23.0
2016-06-27T08:07:07.310Z,23.3
2016-06-27T08:12:06.826Z,23.2
2016-06-27T08:17:19.893Z,23.8
2016-06-27T08:22:08.115Z,24.1
2016-06-27T08:27:06.863Z,24.1
2016-06-27T08:32:23.107Z,23.4
2016-06-27T08:37:08.567Z,23.2
2016-06-27T08:42:06.480Z,23.4
2016-06-27T08:47:23.987Z,23.3
2016-06-27T08:52:08.279Z,24.0
2016-06-27T08:57:07.431Z,24.1
2016-06-27T09:02:18.493Z,24.4
2016-06-27T09:07:07.485Z,25.1
2016-06-27T09:12:07.640Z,25.1
2016-06-27T09:17:26.009Z,25.7
2016-06-27T09:22:06.608Z,25.7
2016-06-27T09:27:07.170Z,26.6
2016-06-27T09:32:18.715Z,26.5
2016-06-27T09:37:09.546Z,26.1
2016-06-27T09:42:07.382Z,25.5
2016-06-27T09:47:19.111Z,25.2
2016-06-27T09:52:08.143Z,25.2
2016-06-27T09:57:07.806Z,25.1
2016-06-27T10:02:18.071Z,25.9
2016-06-27T10:07:10.028Z,25.8
2016-06-27T10:12:08.995Z,25.8
2016-06-27T10:17:18.389Z,25.6
2016-06-27T10:22:07.711Z,25.6
2016-06-27T10:27:08.145Z,25.7
2016-06-27T10:32:19.250Z,26.3
2016-06-27T10:37:10.329Z,27.3
2016-06-27T10:42:10.142Z,28.0
2016-06-27T10:47:18.666Z,28.3
2016-06-27T10:52:10.998Z,28.3
2016-06-27T10:57:09.896Z,28.9
2016-06-27T11:02:18.373Z,28.9
2016-06-27T11:07:11.559Z,29.5
2016-06-27T11:12:07.853Z,29.4
2016-06-27T11:17:22.300Z,28.5
2016-06-27T11:22:09.539Z,28.2
2016-06-27T11:27:07.823Z,28.2
2016-06-27T11:32:19.234Z,27.6
2016-06-27T11:37:10.470Z,27.6
2016-06-27T11:42:08.417Z,27.6
2016-06-27T11:47:24.603Z,27.5
2016-06-27T11:52:08.613Z,27.7
2016-06-27T11:57:08.934Z,27.3
2016-06-27T12:02:23.348Z,27.3
2016-06-27T12:07:10.574Z,27.2
2016-06-27T12:12:09.104Z,27.4
2016-06-27T12:17:19.376Z,28.1
2016-06-27T12:22:09.815Z,28.5
2016-06-27T12:27:08.517Z,29.0
2016-06-27T12:32:16.845Z,28.5
2016-06-27T12:37:10.988Z,27.9
2016-06-27T12:42:09.086Z,27.9
2016-06-27T12:47:18.514Z,27.0
2016-06-27T12:52:08.532Z,26.9
2016-06-27T12:57:08.675Z,26.7
2016-06-27T13:02:22.337Z,26.8
2016-06-27T13:07:10.285Z,26.7
2016-06-27T13:12:09.406Z,27.0
2016-06-27T13:17:19.388Z,27.4
2016-06-27T13:22:08.439Z,27.3
2016-06-27T13:27:08.629Z,27.0
2016-06-27T13:32:22.459Z,26.4
2016-06-27T13:37:09.401Z,26.0
2016-06-27T13:42:07.193Z,26.0
2016-06-27T13:47:16.997Z,25.7
2016-06-27T13:52:08.031Z,25.6
2016-06-27T13:57:08.748Z,25.7
2016-06-27T20:02:16.275Z,20.3
2016-06-27T20:07:05.528Z,20.3
2016-06-27T20:12:05.660Z,20.3
2016-06-27T20:17:09.633Z,20.2
2016-06-27T20:22:04.484Z,20.2
2016-06-27T20:27:05.016Z,20.1
2016-06-27T20:32:05.199Z,20.1
2016-06-27T20:37:04.861Z,20.1
2016-06-27T20:42:05.250Z,20.0
2016-06-27T20:47:04.279Z,19.9
2016-06-27T20:52:04.649Z,19.8
2016-06-27T20:57:05.520Z,19.9
2016-06-27T21:02:05.817Z,19.8
2016-06-27T21:07:04.733Z,19.9
2016-06-27T21:12:04.773Z,20.0
2016-06-27T21:17:07.053Z,20.0
2016-06-27T21:22:04.652Z,20.0
2016-06-27T21:27:04.746Z,20.0
2016-06-27T21:32:04.801Z,20.0
2016-06-27T21:37:04.942Z,19.9
2016-06-27T21:42:04.994Z,19.7
2016-06-27T21:47:04.962Z,19.6
2016-06-27T21:52:05.609Z,19.5
2016-06-27T21:57:04.993Z,19.4
2016-06-27T22:02:05.467Z,19.3
2016-06-27T22:07:05.195Z,19.3
2016-06-27T22:12:04.967Z,19.4
2016-06-27T22:17:07.328Z,19.4
2016-06-27T22:22:05.604Z,19.3
2016-06-27T22:27:05.430Z,19.3
2016-06-27T22:32:04.827Z,19.3
2016-06-27T22:37:04.994Z,19.2
2016-06-27T22:42:05.426Z,19.1
2016-06-27T22:47:05.274Z,19.2
2016-06-27T22:52:04.694Z,19.1
2016-06-27T22:57:05.106Z,19.1
2016-06-27T23:02:05.604Z,19.0
2016-06-27T23:07:06.056Z,18.9
2016-06-27T23:12:05.132Z,18.9
2016-06-27T23:17:06.823Z,18.8
2016-06-27T23:22:05.685Z,18.8
2016-06-27T23:27:04.880Z,18.8
2016-06-27T23:32:05.232Z,18.7
2016-06-27T23:37:05.070Z,18.5
2016-06-27T23:42:05.610Z,18.5
2016-06-27T23:47:05.786Z,18.5
2016-06-27T23:52:05.235Z,18.5
2016-06-27T23:57:05.014Z,18.4
